Time;durP1;ratioP1;P1;durP2;ratioP2;P2;SDS_P1;SDS_P2;PMS_P1;PMS_P2;Temp;Humidity;BMP_temperature;BMP_pressure;BME280_temperature;BME280_humidity;BME280_pressure;Samples;Min_cycle;Max_cycle;Signal;HPM_P1;HPM_P2
2024/02/25 00:02:50;;;;;;;4.17;2.90;;;6.20;99.90;;;;;;6313408;22;36742;-81
2024/02/25 00:20:52;;;;;;;5.80;3.13;;;6.20;99.90;;;;;;6236666;22;20088;-81
2024/02/25 00:23:45;;;;;;;3.90;3.33;;;6.20;99.90;;;;;;6296906;22;36388;-80
2024/02/25 00:29:07;;;;;;;5.97;3.53;;;6.20;99.90;;;;;;6237718;22;20011;-80
2024/02/25 00:31:40;;;;;;;5.73;3.47;;;6.20;99.90;;;;;;6308697;22;38020;-81
2024/02/25 00:34:33;;;;;;;6.90;3.03;;;6.20;99.90;;;;;;6305581;22;36763;-81
2024/02/25 00:37:02;;;;;;;4.87;3.80;;;6.20;99.90;;;;;;6270256;22;39703;-80
2024/02/25 00:39:32;;;;;;;8.13;4.17;;;6.20;99.90;;;;;;6262820;22;48758;-80
2024/02/25 00:42:02;;;;;;;7.13;4.90;;;6.20;99.90;;;;;;6276992;22;36922;-80
2024/02/25 00:54:54;;;;;;;5.47;4.80;;;6.20;99.90;;;;;;6241329;22;20023;-80
2024/02/25 00:57:44;;;;;;;7.73;5.47;;;6.10;99.90;;;;;;6307048;22;38840;-81
2024/02/25 01:13:10;;;;;;;6.50;4.80;;;6.00;99.90;;;;;;6218543;22;20024;-80
2024/02/25 01:36:45;;;;;;;8.20;6.43;;;6.00;99.90;;;;;;6223932;22;20009;-80
2024/02/25 01:46:17;;;;;;;7.85;6.68;;;6.00;99.90;;;;;;6306358;22;50690;-83
2024/02/25 03:36:03;;;;;;;28.47;20.33;;;6.10;99.90;;;;;;6266122;22;20008;-81
2024/02/25 03:56:44;;;;;;;23.10;17.73;;;6.10;99.90;;;;;;6264009;22;20004;-80
2024/02/25 04:50:42;;;;;;;21.33;16.80;;;6.30;99.90;;;;;;6260148;22;20008;-80
2024/02/25 05:03:32;;;;;;;25.90;19.37;;;6.30;99.90;;;;;;6250187;22;20057;-80
2024/02/25 05:32:35;;;;;;;30.07;21.60;;;6.30;99.90;;;;;;6285887;22;21416;-79
2024/02/25 05:35:05;;;;;;;22.27;18.83;;;6.30;99.90;;;;;;6306909;22;37349;-80
2024/02/25 05:45:46;;;;;;;25.77;20.63;;;6.30;99.90;;;;;;6288548;22;20034;-80
2024/02/25 05:48:13;;;;;;;25.43;19.73;;;6.30;99.90;;;;;;6270344;22;38150;-79
2024/02/25 05:51:30;;;;;;;23.20;20.10;;;6.30;99.90;;;;;;6278665;22;38611;-80
2024/02/25 06:01:57;;;;;;;27.73;21.13;;;6.30;99.90;;;;;;6260883;22;20005;-80
2024/02/25 06:09:36;;;;;;;31.27;22.63;;;6.20;99.90;;;;;;6216027;22;20016;-79
2024/02/25 06:22:50;;;;;;;29.20;22.70;;;6.20;99.90;;;;;;6264739;22;20023;-80
2024/02/25 06:25:32;;;;;;;30.03;21.87;;;6.20;99.90;;;;;;6276065;22;37768;-81
2024/02/25 06:51:56;;;;;;;28.13;21.60;;;6.20;99.90;;;;;;6224807;22;20013;-79
2024/02/25 06:56:58;;;;;;;25.87;21.57;;;6.30;99.90;;;;;;6217034;22;20023;-80
2024/02/25 06:59:25;;;;;;;31.77;23.57;;;6.20;99.90;;;;;;6233218;22;37415;-80
2024/02/25 07:02:02;;;;;;;27.73;22.27;;;6.20;99.90;;;;;;6238846;22;38499;-81
2024/02/25 07:04:29;;;;;;;29.17;22.53;;;6.20;99.90;;;;;;6245222;22;48911;-79
2024/02/25 07:28:24;;;;;;;24.67;19.67;;;6.30;99.90;;;;;;6243193;22;20039;-81
2024/02/25 07:31:03;;;;;;;26.73;20.33;;;6.30;99.90;;;;;;6277222;22;37784;-81
2024/02/25 07:42:06;;;;;;;28.20;20.87;;;6.50;99.90;;;;;;6222817;22;20001;-81
2024/02/25 08:18:20;;;;;;;26.47;20.90;;;6.90;99.90;;;;;;6266188;22;20023;-78
2024/02/25 08:20:53;;;;;;;27.33;21.30;;;6.90;99.90;;;;;;6262874;22;36244;-78
2024/02/25 08:23:26;;;;;;;28.03;21.17;;;6.90;99.90;;;;;;6259816;22;36548;-78
2024/02/25 08:31:09;;;;;;;25.03;19.90;;;7.00;99.90;;;;;;6219759;22;20045;-79
2024/02/25 08:33:36;;;;;;;28.70;20.87;;;7.00;99.90;;;;;;6271508;22;37170;-78
2024/02/25 08:36:50;;;;;;;27.83;21.33;;;7.00;99.90;;;;;;6257979;22;37391;-79
2024/02/25 08:39:45;;;;;;;28.10;21.67;;;7.00;99.90;;;;;;6288056;22;39240;-79
2024/02/25 08:42:27;;;;;;;28.30;21.50;;;7.10;99.90;;;;;;6275586;22;37575;-79
2024/02/25 08:44:53;;;;;;;30.90;21.40;;;7.20;99.90;;;;;;6273342;22;37442;-79
2024/02/25 08:47:31;;;;;;;26.60;21.17;;;7.30;99.90;;;;;;6273762;22;40011;-80
2024/02/25 08:50:09;;;;;;;25.73;20.40;;;7.40;99.90;;;;;;6278635;22;38206;-79
2024/02/25 08:52:36;;;;;;;26.80;21.40;;;7.50;99.90;;;;;;6286527;22;50034;-79
2024/02/25 08:55:08;;;;;;;28.57;21.30;;;7.50;99.90;;;;;;6275931;22;38043;-80
2024/02/25 08:57:41;;;;;;;31.87;22.97;;;7.60;99.90;;;;;;6245930;22;48197;-78
2024/02/25 09:00:07;;;;;;;27.53;21.90;;;7.50;99.90;;;;;;6265890;22;37454;-79
2024/02/25 09:02:42;;;;;;;30.43;22.00;;;7.50;99.90;;;;;;6258725;22;38914;-80
2024/02/25 09:05:27;;;;;;;31.40;22.10;;;7.40;99.90;;;;;;6263558;22;36130;-80
2024/02/25 09:08:06;;;;;;;29.10;21.90;;;7.30;99.90;;;;;;6277451;22;40282;-82
2024/02/25 09:15:48;;;;;;;29.60;21.63;;;7.40;99.90;;;;;;6256540;22;20016;-80
2024/02/25 09:29:27;;;;;;;29.10;20.00;;;7.00;99.90;;;;;;6216355;22;40770;-81
2024/02/25 09:34:40;;;;;;;21.17;17.53;;;7.30;99.90;;;;;;6231172;22;20004;-79
2024/02/25 09:37:53;;;;;;;20.83;15.23;;;7.60;99.90;;;;;;6273272;22;37425;-80
2024/02/25 10:20:09;;;;;;;14.90;12.67;;;8.10;99.90;;;;;;6230902;22;20027;-79
2024/02/25 10:22:45;;;;;;;16.57;12.20;;;8.20;99.90;;;;;;6256465;22;48635;-80
2024/02/25 10:25:11;;;;;;;17.87;12.23;;;8.40;99.90;;;;;;6254264;22;37876;-80
2024/02/25 10:27:38;;;;;;;14.30;10.50;;;8.70;99.90;;;;;;6260496;22;38508;-78
2024/02/25 10:30:12;;;;;;;13.13;10.43;;;8.70;94.70;;;;;;6245031;22;37851;-79
2024/02/25 10:32:39;;;;;;;12.90;9.97;;;8.70;82.30;;;;;;6265490;22;47464;-78
2024/02/25 10:35:08;;;;;;;19.43;12.00;;;8.50;86.00;;;;;;6268921;22;38648;-79
2024/02/25 10:37:35;;;;;;;16.83;13.03;;;8.40;94.60;;;;;;6241169;22;40267;-79
2024/02/25 10:40:07;;;;;;;16.83;14.13;;;8.20;99.90;;;;;;6275783;22;37603;-80
2024/02/25 10:42:38;;;;;;;17.70;14.47;;;8.20;99.90;;;;;;6257293;22;49788;-79
2024/02/25 10:45:19;;;;;;;16.17;14.30;;;8.00;99.90;;;;;;6272549;22;40013;-78
2024/02/25 10:47:47;;;;;;;17.03;13.90;;;7.80;99.90;;;;;;6271591;22;37127;-79
2024/02/25 10:50:29;;;;;;;16.67;14.30;;;7.90;99.90;;;;;;6273327;22;38026;-79
2024/02/25 10:52:58;;;;;;;15.73;12.67;;;8.00;99.90;;;;;;6273246;22;40103;-79
2024/02/25 10:55:33;;;;;;;15.27;12.73;;;8.00;99.80;;;;;;6271971;22;39400;-80
2024/02/25 10:58:05;;;;;;;18.27;12.80;;;7.90;99.90;;;;;;6274471;22;38786;-79
2024/02/25 11:00:32;;;;;;;16.08;13.65;;;7.90;99.90;;;;;;6267697;22;47606;-79
2024/02/25 11:03:02;;;;;;;16.10;12.33;;;7.80;99.90;;;;;;6271354;22;39266;-79
2024/02/25 11:05:31;;;;;;;18.73;12.23;;;7.90;99.90;;;;;;6270882;22;47226;-78
2024/02/25 11:08:33;;;;;;;17.30;12.90;;;8.00;99.90;;;;;;6272066;22;36928;-81
2024/02/25 11:11:00;;;;;;;16.33;11.73;;;8.10;99.90;;;;;;6260069;22;48349;-80
2024/02/25 11:16:16;;;;;;;13.20;9.10;;;8.20;99.90;;;;;;6242127;22;20029;-79
2024/02/25 11:18:49;;;;;;;10.87;8.63;;;8.20;98.10;;;;;;6245820;22;37678;-80
2024/02/25 11:21:19;;;;;;;12.70;8.90;;;8.10;91.30;;;;;;6230163;22;37358;-79
2024/02/25 11:23:47;;;;;;;11.00;8.70;;;8.10;88.90;;;;;;6245070;22;39288;-80
2024/02/25 11:26:48;;;;;;;13.53;9.60;;;8.30;85.20;;;;;;6242980;22;39780;-79
2024/02/25 11:29:24;;;;;;;13.83;10.07;;;8.30;67.40;;;;;;6238362;22;37405;-80
2024/02/25 11:32:10;;;;;;;14.53;10.60;;;8.30;70.20;;;;;;6235950;22;37438;-79
2024/02/25 11:34:51;;;;;;;13.57;10.23;;;8.40;66.30;;;;;;6233700;22;48543;-79
2024/02/25 11:37:26;;;;;;;13.90;10.37;;;8.40;49.90;;;;;;6228685;22;38856;-79
2024/02/25 11:40:07;;;;;;;14.00;9.43;;;8.30;48.60;;;;;;6230162;22;37618;-80
2024/02/25 11:45:10;;;;;;;15.73;9.30;;;8.40;57.20;;;;;;6211322;22;20001;-80
2024/02/25 11:47:49;;;;;;;13.43;8.80;;;8.40;54.30;;;;;;6201316;23;38482;-78
2024/02/25 11:50:23;;;;;;;10.33;8.47;;;8.40;53.50;;;;;;6211500;22;39991;-79
2024/02/25 11:55:40;;;;;;;13.57;8.43;;;8.50;51.90;;;;;;6291310;22;20055;-80
2024/02/25 11:58:07;;;;;;;15.60;8.80;;;8.70;60.20;;;;;;6303032;22;38409;-81
2024/02/25 12:00:42;;;;;;;16.67;10.60;;;8.60;50.40;;;;;;6307166;22;39566;-80
2024/02/25 12:03:15;;;;;;;17.20;11.30;;;8.50;62.40;;;;;;6292565;22;38237;-79
2024/02/25 13:34:33;;;;;;;4.43;1.60;;;10.80;1.00;;;;;;6267057;22;20061;-79
2024/02/25 13:37:13;;;;;;;3.30;1.63;;;10.90;1.00;;;;;;6307883;22;36802;-81
2024/02/25 13:39:42;;;;;;;5.63;1.83;;;11.10;1.00;;;;;;6291531;22;48066;-82
2024/02/25 13:42:09;;;;;;;5.15;1.75;;;11.00;1.00;;;;;;6240242;22;38372;-80
2024/02/25 14:00:13;;;;;;;4.13;1.90;;;10.00;1.00;;;;;;6271614;22;20065;-81
2024/02/25 14:02:43;;;;;;;5.93;2.07;;;10.10;1.00;;;;;;6276597;22;38118;-81
2024/02/25 14:05:13;;;;;;;6.03;2.60;;;10.20;1.00;;;;;;6213450;22;39081;-79
2024/02/25 14:08:01;;;;;;;8.67;3.17;;;10.40;1.00;;;;;;6277928;22;39056;-82
2024/02/25 14:13:35;;;;;;;5.40;3.43;;;10.90;1.00;;;;;;6248279;22;39181;-80
2024/02/25 14:16:06;;;;;;;5.10;3.67;;;10.90;1.00;;;;;;6278364;22;37688;-81
2024/02/25 14:18:38;;;;;;;8.10;3.65;;;10.80;1.00;;;;;;6263412;22;48635;-81
2024/02/25 14:21:07;;;;;;;8.45;4.40;;;10.90;1.00;;;;;;6274404;22;38811;-81
2024/02/25 14:23:33;;;;;;;5.53;3.60;;;11.00;1.00;;;;;;6277231;22;38335;-80
2024/02/25 14:26:13;;;;;;;6.68;3.30;;;11.00;1.00;;;;;;6276711;22;37584;-81
2024/02/25 14:33:51;;;;;;;3.58;2.83;;;10.60;1.00;;;;;;6254875;22;20009;-81
2024/02/25 14:36:17;;;;;;;4.43;2.78;;;10.60;1.00;;;;;;6274581;22;37749;-82
2024/02/25 14:38:54;;;;;;;3.83;2.35;;;10.50;1.00;;;;;;6278625;22;40023;-80
2024/02/25 14:41:23;;;;;;;4.20;2.20;;;10.20;1.00;;;;;;6278033;22;40220;-81
2024/02/25 14:44:03;;;;;;;2.97;2.40;;;10.10;1.00;;;;;;6277110;22;39906;-81
2024/02/25 14:46:29;;;;;;;5.73;2.30;;;10.00;1.00;;;;;;6275501;22;48903;-82
2024/02/25 14:49:08;;;;;;;3.23;2.33;;;9.90;1.00;;;;;;6277894;22;38613;-81
2024/02/25 14:51:35;;;;;;;3.60;2.60;;;9.90;1.00;;;;;;6275157;22;48420;-81
2024/02/25 14:56:38;;;;;;;3.70;1.80;;;10.10;1.00;;;;;;6208283;22;20029;-81
2024/02/25 14:59:07;;;;;;;7.23;1.83;;;10.30;1.00;;;;;;6289815;22;37220;-80
2024/02/25 15:01:38;;;;;;;5.30;2.20;;;10.40;1.00;;;;;;6297593;22;38879;-81
2024/02/25 15:04:05;;;;;;;6.73;4.00;;;10.20;1.00;;;;;;6262900;22;38882;-81
2024/02/25 15:06:32;;;;;;;4.10;1.87;;;10.30;1.00;;;;;;6272390;22;38575;-81
2024/02/25 15:09:01;;;;;;;5.67;2.70;;;10.30;1.00;;;;;;6272770;22;37323;-81
2024/02/25 15:11:27;;;;;;;6.07;3.00;;;10.10;1.00;;;;;;6262849;22;50085;-80
2024/02/25 15:13:57;;;;;;;4.43;2.60;;;10.30;1.00;;;;;;6268171;22;38202;-81
2024/02/25 15:16:26;;;;;;;13.47;9.20;;;10.20;1.00;;;;;;6275221;22;37044;-81
2024/02/25 15:18:54;;;;;;;8.57;5.63;;;10.20;1.00;;;;;;6278669;22;38800;-81
2024/02/25 15:21:21;;;;;;;6.17;3.20;;;10.20;1.00;;;;;;6274912;22;38892;-82
2024/02/25 15:23:51;;;;;;;6.97;3.67;;;10.30;1.00;;;;;;6267329;22;38208;-81
2024/02/25 15:26:22;;;;;;;6.70;3.17;;;10.40;1.00;;;;;;6238832;22;36883;-81
2024/02/25 15:29:08;;;;;;;5.20;2.47;;;10.20;1.00;;;;;;6277318;22;37620;-81
2024/02/25 15:31:44;;;;;;;7.87;2.60;;;10.20;1.00;;;;;;6277030;22;49228;-81
2024/02/25 15:34:10;;;;;;;4.57;2.47;;;10.10;1.00;;;;;;6270702;22;38346;-80
2024/02/25 15:36:45;;;;;;;7.40;2.40;;;10.10;1.00;;;;;;6268257;22;38690;-81
2024/02/25 15:39:14;;;;;;;3.43;1.80;;;10.10;1.00;;;;;;6292185;22;37816;-80
2024/02/25 15:41:49;;;;;;;4.23;2.17;;;10.00;1.00;;;;;;6250432;22;38807;-81
2024/02/25 15:44:22;;;;;;;5.67;2.20;;;10.00;1.00;;;;;;6270141;22;37678;-81
2024/02/25 15:47:02;;;;;;;4.27;1.63;;;9.90;1.00;;;;;;6275530;22;38056;-81
2024/02/25 15:49:29;;;;;;;4.03;1.70;;;9.90;1.00;;;;;;6274962;22;49565;-81
2024/02/25 15:51:56;;;;;;;5.27;1.80;;;9.80;1.00;;;;;;6276753;22;40315;-81
2024/02/25 15:54:32;;;;;;;6.00;1.90;;;9.70;1.00;;;;;;6274923;22;38899;-80
2024/02/25 15:57:09;;;;;;;4.73;1.50;;;9.60;1.00;;;;;;6278643;22;39172;-81
2024/02/25 15:59:39;;;;;;;4.60;1.13;;;9.50;1.00;;;;;;6275074;22;49774;-82
2024/02/25 16:02:19;;;;;;;4.33;1.70;;;9.50;1.00;;;;;;6273892;22;38638;-80
2024/02/25 16:04:56;;;;;;;5.43;1.80;;;9.40;1.00;;;;;;6275828;22;37473;-81
2024/02/25 16:07:33;;;;;;;4.97;1.80;;;9.40;1.00;;;;;;6276021;22;38649;-81
2024/02/25 16:09:59;;;;;;;5.23;1.87;;;9.30;1.00;;;;;;6272944;22;37463;-80
2024/02/25 16:12:51;;;;;;;8.53;1.97;;;9.30;1.00;;;;;;6273480;22;40065;-81
2024/02/25 16:15:41;;;;;;;9.63;1.88;;;9.20;1.00;;;;;;6299709;22;37147;-81
2024/02/25 16:18:18;;;;;;;7.73;2.00;;;9.20;1.00;;;;;;6272154;22;37783;-80
2024/02/25 16:20:44;;;;;;;8.80;2.60;;;9.20;1.00;;;;;;6269798;22;37496;-81
2024/02/25 16:23:11;;;;;;;7.33;2.73;;;9.20;1.00;;;;;;6263080;22;38911;-80
2024/02/25 16:25:40;;;;;;;7.47;2.90;;;9.20;1.00;;;;;;6275787;22;39181;-82
2024/02/25 16:30:47;;;;;;;6.27;2.57;;;9.10;1.00;;;;;;6298584;22;20062;-82
2024/02/25 16:35:49;;;;;;;5.30;2.23;;;9.10;1.00;;;;;;6222161;22;20053;-80
2024/02/25 16:38:31;;;;;;;5.53;2.50;;;9.10;1.00;;;;;;6305872;22;39619;-81
2024/02/25 16:40:59;;;;;;;5.73;2.63;;;9.20;1.00;;;;;;6308673;22;37455;-82
2024/02/25 16:43:43;;;;;;;8.80;2.70;;;9.20;1.00;;;;;;6302819;22;40119;-81
2024/02/25 17:15:29;;;;;;;7.13;1.60;;;8.40;1.00;;;;;;6275536;22;20049;-80
2024/02/25 17:18:07;;;;;;;4.27;2.10;;;8.30;1.00;;;;;;6307813;22;38448;-81
2024/02/25 17:20:34;;;;;;;6.87;1.87;;;8.30;1.00;;;;;;6237446;22;48699;-79
2024/02/25 17:23:26;;;;;;;5.83;2.10;;;8.20;1.00;;;;;;6298861;22;37765;-80
2024/02/25 17:25:56;;;;;;;6.43;2.00;;;8.20;1.00;;;;;;6306375;22;48379;-80
2024/02/25 17:28:22;;;;;;;8.60;2.47;;;8.10;1.00;;;;;;6297516;22;38301;-80
2024/02/25 17:30:49;;;;;;;6.90;2.20;;;8.10;1.00;;;;;;6305304;22;37618;-80
2024/02/25 17:41:52;;;;;;;8.23;2.50;;;8.00;11.30;;;;;;6216322;22;20021;-79
2024/02/25 17:44:29;;;;;;;9.07;2.70;;;8.00;13.20;;;;;;6294013;22;38273;-80
2024/02/25 17:47:05;;;;;;;6.23;2.63;;;8.00;16.90;;;;;;6256975;22;39718;-81
2024/02/25 17:49:34;;;;;;;11.83;2.90;;;8.00;20.80;;;;;;6292087;22;48365;-80
2024/02/25 17:52:23;;;;;;;5.27;2.60;;;8.10;19.30;;;;;;6296790;22;39119;-81
2024/02/25 17:55:02;;;;;;;5.17;2.80;;;8.10;19.30;;;;;;6279720;22;47425;-80
2024/02/25 17:57:42;;;;;;;6.03;2.63;;;8.20;16.20;;;;;;6282140;22;40101;-79
2024/02/25 18:00:12;;;;;;;6.37;2.87;;;8.20;17.40;;;;;;6297142;22;37450;-80
2024/02/25 18:02:45;;;;;;;4.70;2.17;;;8.20;15.20;;;;;;6303970;22;36126;-81
2024/02/25 18:05:16;;;;;;;5.80;2.20;;;8.30;15.50;;;;;;6304502;22;37219;-80
2024/02/25 18:07:48;;;;;;;5.50;2.97;;;8.30;13.30;;;;;;6294349;22;39255;-80
2024/02/25 18:10:30;;;;;;;7.40;2.45;;;8.30;15.00;;;;;;6307227;22;39823;-81
2024/02/25 18:12:57;;;;;;;6.72;3.13;;;8.30;11.30;;;;;;6304809;22;37688;-80
2024/02/25 18:15:31;;;;;;;3.83;2.43;;;8.30;10.50;;;;;;6305707;22;38022;-80
2024/02/25 18:18:04;;;;;;;7.20;2.53;;;8.30;9.60;;;;;;6306865;22;39256;-80
2024/02/25 18:20:35;;;;;;;5.78;2.60;;;8.30;6.30;;;;;;6303874;22;48498;-79
2024/02/25 18:23:14;;;;;;;4.77;2.63;;;8.30;7.90;;;;;;6303963;22;39774;-81
2024/02/25 18:25:58;;;;;;;6.93;2.87;;;8.20;7.70;;;;;;6263429;22;48989;-79
2024/02/25 18:28:25;;;;;;;8.07;2.87;;;8.20;10.00;;;;;;6307217;22;39849;-80
2024/02/25 18:31:09;;;;;;;10.13;3.40;;;8.10;9.20;;;;;;6307145;22;38755;-80
2024/02/25 18:33:43;;;;;;;5.93;3.00;;;8.10;10.00;;;;;;6305906;22;47763;-80
2024/02/25 18:36:10;;;;;;;13.83;5.87;;;8.00;12.30;;;;;;6293660;22;37214;-79
2024/02/25 18:38:39;;;;;;;30.03;12.10;;;8.00;15.40;;;;;;6303326;22;38906;-79
2024/02/25 18:41:17;;;;;;;13.50;6.13;;;7.90;20.50;;;;;;6301519;22;38180;-79
2024/02/25 18:43:44;;;;;;;27.83;11.90;;;7.90;21.20;;;;;;6304595;22;38062;-79
2024/02/25 18:46:21;;;;;;;24.43;12.27;;;7.90;25.10;;;;;;6303075;22;36964;-80
2024/02/25 18:48:49;;;;;;;17.77;7.57;;;7.80;29.00;;;;;;6307037;22;38925;-79
2024/02/25 18:51:16;;;;;;;24.67;12.17;;;7.80;29.70;;;;;;6304736;22;38116;-79
2024/02/25 18:53:45;;;;;;;26.10;12.93;;;7.80;33.30;;;;;;6307121;22;39169;-78
2024/02/25 18:56:12;;;;;;;14.90;5.57;;;7.70;36.20;;;;;;6301789;22;38139;-79
2024/02/25 18:58:39;;;;;;;15.00;5.97;;;7.70;37.30;;;;;;6307138;22;38701;-79
2024/02/25 19:01:05;;;;;;;20.60;7.10;;;7.70;41.40;;;;;;6303938;22;37233;-78
2024/02/25 19:03:35;;;;;;;24.00;9.77;;;7.70;41.50;;;;;;6298875;22;37674;-80
2024/02/25 19:06:03;;;;;;;16.87;8.37;;;7.60;44.30;;;;;;6302135;22;37130;-79
2024/02/25 19:08:29;;;;;;;12.90;7.20;;;7.60;49.60;;;;;;6303114;22;48303;-78
2024/02/25 19:11:05;;;;;;;15.77;8.37;;;7.50;53.20;;;;;;6297280;22;38704;-80
2024/02/25 19:13:34;;;;;;;7.53;4.13;;;7.50;56.10;;;;;;6316919;22;50157;-80
2024/02/25 19:16:03;;;;;;;8.30;4.97;;;7.50;55.20;;;;;;6303440;22;37150;-79
2024/02/25 19:18:32;;;;;;;10.67;4.80;;;7.50;53.80;;;;;;6300326;22;48878;-79
2024/02/25 19:20:59;;;;;;;7.90;3.80;;;7.40;54.20;;;;;;6300160;22;38393;-79
2024/02/25 19:23:25;;;;;;;8.93;4.70;;;7.40;51.40;;;;;;6294844;22;38288;-79
2024/02/25 19:25:55;;;;;;;50.43;19.43;;;7.40;51.50;;;;;;6299035;22;37002;-79
2024/02/25 19:28:24;;;;;;;102.40;34.73;;;7.40;51.30;;;;;;6300210;22;39310;-79
2024/02/25 19:30:52;;;;;;;40.57;14.80;;;7.40;48.80;;;;;;6299851;22;38326;-79
2024/02/25 19:33:19;;;;;;;44.87;17.07;;;7.40;49.70;;;;;;6295437;22;37626;-78
2024/02/25 19:35:46;;;;;;;62.73;23.67;;;7.40;50.70;;;;;;6298299;22;36379;-78
2024/02/25 19:38:13;;;;;;;15.13;8.07;;;7.40;54.00;;;;;;6302704;22;38962;-80
2024/02/25 19:40:47;;;;;;;5.60;4.00;;;7.40;55.80;;;;;;6303106;22;39713;-80
2024/02/25 19:43:14;;;;;;;9.27;5.47;;;7.40;58.10;;;;;;6303942;22;37646;-79
2024/02/25 19:45:45;;;;;;;17.80;7.80;;;7.40;58.10;;;;;;6298524;22;36303;-78
2024/02/25 19:48:16;;;;;;;26.70;15.10;;;7.50;61.40;;;;;;6297403;22;38335;-79
2024/02/25 19:50:42;;;;;;;10.03;7.17;;;7.50;59.90;;;;;;6301623;22;39576;-78
2024/02/25 19:53:14;;;;;;;8.17;5.63;;;7.50;60.20;;;;;;6303761;22;37526;-80
2024/02/25 19:55:41;;;;;;;7.50;4.47;;;7.60;58.30;;;;;;6298104;22;36944;-78
2024/02/25 19:58:08;;;;;;;7.23;4.87;;;7.60;59.50;;;;;;6299819;22;37906;-79
2024/02/25 20:00:34;;;;;;;5.57;3.47;;;7.60;59.30;;;;;;6300319;22;38162;-79
2024/02/25 20:03:05;;;;;;;5.63;4.10;;;7.60;56.40;;;;;;6303211;22;38075;-80
2024/02/25 20:05:34;;;;;;;6.47;4.10;;;7.70;55.70;;;;;;6305325;22;50223;-80
2024/02/25 20:10:36;;;;;;;9.87;5.77;;;7.70;52.60;;;;;;6252475;22;20056;-80
2024/02/25 20:13:03;;;;;;;6.93;3.63;;;7.70;54.60;;;;;;6269615;22;37848;-79
2024/02/25 20:15:30;;;;;;;8.37;4.07;;;7.70;54.60;;;;;;6246314;22;36327;-79
2024/02/25 20:17:58;;;;;;;4.87;4.10;;;7.70;54.60;;;;;;6270486;22;39606;-80
2024/02/25 20:20:31;;;;;;;6.10;3.80;;;7.70;50.80;;;;;;6247020;22;38329;-78
2024/02/25 20:23:00;;;;;;;9.88;4.55;;;7.70;51.60;;;;;;6251748;22;37154;-77
2024/02/25 20:25:27;;;;;;;5.70;3.47;;;7.60;48.00;;;;;;6243909;22;36770;-79
2024/02/25 20:27:54;;;;;;;6.43;3.27;;;7.60;43.00;;;;;;6246110;22;37702;-79
2024/02/25 20:30:25;;;;;;;7.03;3.83;;;7.70;41.80;;;;;;6271378;22;38678;-79
2024/02/25 20:32:51;;;;;;;6.27;3.10;;;7.60;37.10;;;;;;6268430;22;39095;-80
2024/02/25 20:35:18;;;;;;;6.77;4.63;;;7.60;37.60;;;;;;6264059;22;36227;-80
2024/02/25 20:38:07;;;;;;;6.10;4.33;;;7.60;32.80;;;;;;6244880;22;38077;-79
2024/02/25 20:40:36;;;;;;;6.80;3.80;;;7.60;33.50;;;;;;6258028;22;49096;-79
2024/02/25 20:43:02;;;;;;;9.70;6.07;;;7.60;30.20;;;;;;6265684;22;36958;-78
2024/02/25 20:45:32;;;;;;;8.07;5.33;;;7.60;26.00;;;;;;6271107;22;37907;-79
2024/02/25 20:48:01;;;;;;;5.30;3.37;;;7.60;25.50;;;;;;6270019;22;38409;-79
2024/02/25 20:50:30;;;;;;;6.93;4.17;;;7.60;24.90;;;;;;6229115;22;48573;-78
2024/02/25 20:52:56;;;;;;;6.93;4.03;;;7.60;26.80;;;;;;6268891;22;36489;-78
2024/02/25 20:55:23;;;;;;;10.13;4.33;;;7.50;27.20;;;;;;6232803;22;37322;-78
2024/02/25 20:57:49;;;;;;;5.97;3.43;;;7.50;29.10;;;;;;6267903;22;37800;-79
2024/02/25 21:00:16;;;;;;;4.93;3.27;;;7.50;28.50;;;;;;6242010;22;37549;-78
2024/02/25 21:02:44;;;;;;;3.83;2.63;;;7.50;28.20;;;;;;6241655;22;37365;-80
2024/02/25 21:05:12;;;;;;;4.90;3.30;;;7.40;26.20;;;;;;6268520;22;37272;-78
2024/02/25 21:07:39;;;;;;;5.20;2.97;;;7.50;24.90;;;;;;6239798;22;37717;-78
2024/02/25 21:10:09;;;;;;;4.63;3.23;;;7.50;26.80;;;;;;6248081;22;37786;-80
2024/02/25 21:12:35;;;;;;;4.20;3.30;;;7.50;23.80;;;;;;6221533;23;48306;-79
2024/02/25 21:15:03;;;;;;;5.03;2.73;;;7.50;22.30;;;;;;6226206;22;36712;-79
2024/02/25 21:17:33;;;;;;;6.00;3.37;;;7.50;20.10;;;;;;6272767;22;40118;-80
2024/02/25 21:19:59;;;;;;;6.07;3.00;;;7.60;16.20;;;;;;6272010;22;37565;-79
2024/02/25 21:22:29;;;;;;;3.47;2.63;;;7.60;13.10;;;;;;6241791;22;38248;-79
2024/02/25 21:24:56;;;;;;;5.80;3.30;;;7.60;13.00;;;;;;6245945;22;37646;-79
2024/02/25 21:27:26;;;;;;;4.97;2.33;;;7.60;8.90;;;;;;6239553;22;38002;-78
2024/02/25 21:29:52;;;;;;;5.00;2.20;;;7.60;5.50;;;;;;6264408;22;38372;-78
2024/02/25 21:32:21;;;;;;;5.23;2.90;;;7.70;1.00;;;;;;6266531;22;36956;-79
2024/02/25 21:34:50;;;;;;;6.73;2.67;;;7.70;1.00;;;;;;6266103;22;36386;-78
2024/02/25 21:37:30;;;;;;;4.17;2.43;;;7.70;1.00;;;;;;6237026;22;38928;-79
2024/02/25 21:40:04;;;;;;;5.30;2.77;;;7.80;1.00;;;;;;6268690;22;38039;-79
2024/02/25 21:42:34;;;;;;;4.40;2.40;;;7.80;1.00;;;;;;6231328;22;48764;-80
2024/02/25 21:45:02;;;;;;;6.13;2.73;;;7.80;1.00;;;;;;6243073;22;36283;-79
2024/02/25 21:47:30;;;;;;;7.17;2.93;;;7.80;1.00;;;;;;6246395;22;39275;-80
2024/02/25 21:49:57;;;;;;;5.33;3.03;;;7.80;1.00;;;;;;6276309;22;39833;-79
2024/02/25 21:52:28;;;;;;;6.70;3.17;;;7.70;1.00;;;;;;6242178;22;37038;-79
2024/02/25 21:55:04;;;;;;;5.00;3.00;;;7.70;1.00;;;;;;6259175;22;36515;-78
2024/02/25 21:57:39;;;;;;;5.77;3.07;;;7.70;1.00;;;;;;6216744;22;48573;-79
2024/02/25 22:00:08;;;;;;;5.43;4.10;;;7.70;2.90;;;;;;6245250;22;37489;-80
2024/02/25 22:02:35;;;;;;;6.30;3.30;;;7.60;1.00;;;;;;6263279;22;39093;-80
2024/02/25 22:05:02;;;;;;;10.80;3.50;;;7.60;1.70;;;;;;6268255;22;36481;-79
2024/02/25 22:07:28;;;;;;;8.23;3.57;;;7.60;1.80;;;;;;6225006;22;38873;-79
2024/02/25 22:09:57;;;;;;;9.43;3.53;;;7.60;1.10;;;;;;6260026;22;37681;-79
2024/02/25 22:12:23;;;;;;;6.03;3.20;;;7.60;3.40;;;;;;6263555;22;36944;-78
2024/02/25 22:14:49;;;;;;;6.10;3.27;;;7.60;3.10;;;;;;6272620;22;36725;-80
2024/02/25 22:17:16;;;;;;;7.73;4.10;;;7.60;1.60;;;;;;6238852;22;38755;-78
2024/02/25 22:19:42;;;;;;;5.53;3.37;;;7.50;2.40;;;;;;6268746;22;40759;-79
2024/02/25 22:22:08;;;;;;;9.27;3.37;;;7.50;2.00;;;;;;6266089;22;37498;-79
2024/02/25 22:24:35;;;;;;;5.30;3.50;;;7.50;3.60;;;;;;6239859;22;36290;-78
2024/02/25 22:27:02;;;;;;;7.37;3.70;;;7.50;2.40;;;;;;6267979;22;39391;-80
2024/02/25 22:29:28;;;;;;;5.20;3.10;;;7.50;6.60;;;;;;6239636;22;48564;-79
2024/02/25 22:31:54;;;;;;;6.37;3.40;;;7.50;2.40;;;;;;6240997;22;37440;-78
2024/02/25 22:34:22;;;;;;;6.43;3.60;;;7.50;1.90;;;;;;6251592;22;36265;-79
2024/02/25 22:36:49;;;;;;;6.03;3.03;;;7.50;3.30;;;;;;6261512;22;39641;-78
2024/02/25 22:39:15;;;;;;;5.90;3.53;;;7.40;2.20;;;;;;6263792;22;37506;-79
2024/02/25 22:41:42;;;;;;;7.53;3.93;;;7.40;5.80;;;;;;6241553;22;36720;-78
2024/02/25 22:44:24;;;;;;;6.53;4.00;;;7.40;8.90;;;;;;6239022;22;39552;-79
2024/02/25 22:46:54;;;;;;;7.25;3.45;;;7.30;13.50;;;;;;6266388;22;38489;-80
2024/02/25 22:49:27;;;;;;;5.67;3.70;;;7.30;15.00;;;;;;6245552;22;38024;-79
2024/02/25 22:52:05;;;;;;;5.93;3.30;;;7.30;16.30;;;;;;6259132;22;37745;-79
2024/02/25 22:54:32;;;;;;;6.63;3.00;;;7.20;15.40;;;;;;6248400;22;47627;-79
2024/02/25 22:56:58;;;;;;;5.37;3.40;;;7.20;14.20;;;;;;6238136;22;37840;-79
2024/02/25 22:59:25;;;;;;;6.83;3.03;;;7.20;15.00;;;;;;6238261;22;38637;-78
2024/02/25 23:01:52;;;;;;;7.57;2.80;;;7.20;11.20;;;;;;6263318;22;36616;-78
2024/02/25 23:04:21;;;;;;;6.33;3.00;;;7.20;12.60;;;;;;6245773;22;36303;-79
2024/02/25 23:06:48;;;;;;;7.70;3.43;;;7.20;7.30;;;;;;6265251;22;40057;-79
2024/02/25 23:09:17;;;;;;;6.43;2.93;;;7.20;5.50;;;;;;6265652;22;37509;-79
2024/02/25 23:11:43;;;;;;;7.27;2.77;;;7.20;3.30;;;;;;6263073;22;38084;-80
2024/02/25 23:14:09;;;;;;;6.53;2.47;;;7.30;3.00;;;;;;6272022;22;37322;-79
2024/02/25 23:16:36;;;;;;;4.20;3.07;;;7.30;1.40;;;;;;6272473;22;40827;-79
2024/02/25 23:19:02;;;;;;;6.37;3.27;;;7.20;1.00;;;;;;6245998;22;37537;-80
2024/02/25 23:21:29;;;;;;;5.37;3.03;;;7.30;1.10;;;;;;6277500;22;39072;-78
2024/02/25 23:23:56;;;;;;;10.13;3.30;;;7.20;1.00;;;;;;6247820;22;38385;-79
2024/02/25 23:26:22;;;;;;;6.07;2.70;;;7.20;1.00;;;;;;6260953;22;37951;-79
2024/02/25 23:28:49;;;;;;;5.50;3.00;;;7.30;1.00;;;;;;6266874;22;20021;-78
2024/02/25 23:31:15;;;;;;;5.43;2.93;;;7.30;1.00;;;;;;6234485;22;36687;-78
2024/02/25 23:33:44;;;;;;;4.53;3.27;;;7.20;1.00;;;;;;6267957;22;38745;-82
2024/02/25 23:36:10;;;;;;;4.80;2.87;;;7.20;1.00;;;;;;6262025;22;40294;-78
2024/02/25 23:38:37;;;;;;;5.03;2.67;;;7.20;2.00;;;;;;6243220;22;39086;-79
2024/02/25 23:41:06;;;;;;;6.43;2.80;;;7.20;3.90;;;;;;6272650;22;38070;-78
2024/02/25 23:43:32;;;;;;;4.70;2.73;;;7.20;7.50;;;;;;6274647;22;39904;-79
2024/02/25 23:45:59;;;;;;;4.73;3.30;;;7.10;8.90;;;;;;6249652;22;39021;-80
2024/02/25 23:48:26;;;;;;;7.13;3.20;;;7.10;10.80;;;;;;6243177;22;38334;-79
2024/02/25 23:50:52;;;;;;;4.37;3.13;;;7.10;11.90;;;;;;6245402;22;37085;-79
2024/02/25 23:53:19;;;;;;;7.27;2.90;;;7.10;15.80;;;;;;6271593;22;37809;-79
2024/02/25 23:55:45;;;;;;;6.00;3.40;;;7.10;15.60;;;;;;6271093;22;39119;-79